Time;durP1;ratioP1;P1;durP2;ratioP2;P2;SDS_P1;SDS_P2;PMS_P1;PMS_P2;Temp;Humidity;BMP_temperature;BMP_pressure;BME280_temperature;BME280_humidity;BME280_pressure;Samples;Min_cycle;Max_cycle;Signal;HPM_P1;HPM_P2
2023/10/22 00:02:10;;;;;;;0.50;0.20;;;13.10;99.90;;;;;;4998414;28;20042;-66
2023/10/22 00:04:38;;;;;;;1.27;0.10;;;13.20;99.90;;;;;;4999210;28;20054;-66
2023/10/22 00:07:05;;;;;;;4.55;0.30;;;13.10;99.90;;;;;;4995636;28;20422;-67
2023/10/22 00:09:31;;;;;;;0.30;0.10;;;13.10;99.90;;;;;;5010500;28;20458;-66
2023/10/22 00:11:56;;;;;;;0.70;0.17;;;13.10;99.90;;;;;;4994592;28;20077;-66
2023/10/22 00:14:22;;;;;;;1.25;0.15;;;13.10;99.90;;;;;;5000748;28;20330;-67
2023/10/22 00:16:47;;;;;;;0.25;0.05;;;13.10;99.90;;;;;;5015525;28;20030;-66
2023/10/22 00:19:13;;;;;;;0.63;0.25;;;13.10;99.90;;;;;;4991419;28;20038;-66
2023/10/22 00:21:39;;;;;;;0.00;0.00;;;13.10;99.90;;;;;;5017821;28;20492;-66
2023/10/22 00:24:05;;;;;;;0.10;0.00;;;13.10;99.90;;;;;;5017917;28;20034;-66
2023/10/22 00:26:31;;;;;;;2.92;0.10;;;13.10;99.90;;;;;;5018110;28;20095;-67
2023/10/22 00:28:57;;;;;;;0.38;0.00;;;13.10;99.90;;;;;;4997852;28;20053;-66
2023/10/22 00:31:22;;;;;;;1.42;0.10;;;13.10;99.90;;;;;;5009422;28;20061;-66
2023/10/22 00:33:48;;;;;;;1.30;0.15;;;13.20;99.90;;;;;;4999656;28;20088;-67
2023/10/22 00:36:14;;;;;;;0.75;0.10;;;13.10;99.90;;;;;;4985617;28;20056;-68
2023/10/22 00:38:40;;;;;;;0.05;0.00;;;13.10;99.90;;;;;;4998972;28;20041;-66
2023/10/22 00:41:05;;;;;;;0.30;0.10;;;13.10;99.90;;;;;;4995738;28;20350;-66
2023/10/22 00:43:31;;;;;;;1.52;0.40;;;13.10;99.90;;;;;;5014983;28;20064;-66
2023/10/22 00:45:57;;;;;;;0.63;0.25;;;13.10;99.90;;;;;;5013448;28;20037;-67
2023/10/22 00:48:25;;;;;;;0.00;0.00;;;13.10;99.90;;;;;;5016629;28;20308;-67
2023/10/22 00:50:52;;;;;;;0.75;0.10;;;13.10;99.90;;;;;;5014106;28;20049;-67
2023/10/22 00:53:19;;;;;;;0.08;0.08;;;13.00;99.90;;;;;;5000171;28;20037;-67
2023/10/22 00:55:47;;;;;;;0.32;0.10;;;13.00;99.90;;;;;;4996241;28;20536;-67
2023/10/22 00:58:16;;;;;;;0.13;0.00;;;13.00;99.90;;;;;;4991345;28;20127;-66
2023/10/22 01:00:44;;;;;;;0.88;0.13;;;13.00;99.90;;;;;;4999110;28;20065;-67
2023/10/22 01:03:10;;;;;;;0.20;0.00;;;12.90;99.90;;;;;;4994808;28;20099;-66
2023/10/22 01:05:37;;;;;;;0.65;0.10;;;12.90;99.90;;;;;;4982004;28;20054;-68
2023/10/22 01:08:05;;;;;;;0.70;0.00;;;12.90;99.90;;;;;;4976167;28;20049;-67
2023/10/22 01:10:31;;;;;;;0.10;0.00;;;12.80;99.90;;;;;;4999899;28;20599;-66
2023/10/22 01:12:58;;;;;;;0.88;0.43;;;12.80;99.90;;;;;;5018901;28;20048;-67
2023/10/22 01:15:24;;;;;;;0.77;0.10;;;12.80;99.90;;;;;;4994366;28;20079;-68
2023/10/22 01:17:49;;;;;;;0.00;0.00;;;12.80;99.90;;;;;;4975026;28;20113;-67
2023/10/22 01:20:15;;;;;;;0.80;0.03;;;12.80;99.90;;;;;;4996682;28;20068;-67
2023/10/22 01:22:41;;;;;;;0.38;0.00;;;12.70;99.90;;;;;;5000369;28;20030;-67
2023/10/22 01:25:07;;;;;;;0.10;0.00;;;12.60;99.90;;;;;;4993343;28;20044;-67
2023/10/22 01:27:33;;;;;;;2.28;0.15;;;12.50;99.90;;;;;;5014561;28;20390;-67
2023/10/22 01:29:59;;;;;;;1.65;0.10;;;12.50;99.90;;;;;;4998521;28;20053;-68
2023/10/22 01:32:30;;;;;;;3.88;0.40;;;12.40;99.90;;;;;;4981935;28;20673;-66
2023/10/22 01:34:57;;;;;;;0.00;0.00;;;12.40;99.90;;;;;;4997039;28;20490;-67
2023/10/22 01:37:23;;;;;;;0.10;0.00;;;12.40;99.90;;;;;;5012254;28;20045;-67
2023/10/22 01:39:50;;;;;;;3.10;0.22;;;12.30;99.90;;;;;;4995834;28;20069;-68
2023/10/22 01:42:16;;;;;;;0.55;0.20;;;12.30;99.90;;;;;;5015454;28;20064;-68
2023/10/22 01:44:41;;;;;;;0.08;0.00;;;12.20;99.90;;;;;;5017247;28;20042;-67
2023/10/22 01:47:07;;;;;;;0.60;0.10;;;12.30;99.90;;;;;;5015173;28;20052;-67
2023/10/22 01:49:33;;;;;;;0.22;0.08;;;12.30;99.90;;;;;;4996130;28;20569;-67
2023/10/22 01:51:58;;;;;;;0.00;0.00;;;12.30;99.90;;;;;;5000227;28;20044;-69
2023/10/22 01:54:24;;;;;;;0.15;0.00;;;12.20;99.90;;;;;;4990619;28;20041;-68
2023/10/22 01:56:50;;;;;;;0.00;0.00;;;12.20;99.90;;;;;;5016203;28;20048;-67
2023/10/22 01:59:15;;;;;;;0.43;0.10;;;12.20;99.90;;;;;;4989152;28;20163;-68
2023/10/22 02:01:42;;;;;;;0.25;0.00;;;12.10;99.90;;;;;;5005058;28;20038;-67
2023/10/22 02:04:08;;;;;;;0.32;0.10;;;12.10;99.90;;;;;;4979464;28;20123;-68
2023/10/22 02:06:34;;;;;;;0.20;0.00;;;12.00;99.90;;;;;;5001244;28;20041;-68
2023/10/22 02:09:03;;;;;;;0.30;0.10;;;12.00;99.90;;;;;;5020254;28;20042;-68
2023/10/22 02:11:28;;;;;;;0.30;0.08;;;12.00;99.90;;;;;;5000172;28;20497;-67
2023/10/22 02:13:54;;;;;;;0.28;0.10;;;12.00;99.90;;;;;;4999627;28;20059;-67
2023/10/22 02:16:20;;;;;;;3.50;0.28;;;12.00;99.90;;;;;;5015356;28;20034;-67
2023/10/22 02:18:45;;;;;;;0.85;0.08;;;12.00;99.90;;;;;;5020957;28;20087;-67
2023/10/22 02:21:11;;;;;;;2.03;0.00;;;11.90;99.90;;;;;;4997616;28;20041;-67
2023/10/22 02:23:39;;;;;;;0.00;0.00;;;11.90;99.90;;;;;;5002339;28;20476;-67
2023/10/22 02:26:05;;;;;;;0.47;0.25;;;11.90;99.90;;;;;;5000692;28;20065;-68
2023/10/22 02:28:32;;;;;;;4.07;0.13;;;11.90;99.90;;;;;;5018948;28;20119;-67
2023/10/22 02:30:58;;;;;;;0.57;0.05;;;11.80;99.90;;;;;;5000395;28;20069;-68
2023/10/22 02:33:24;;;;;;;0.50;0.30;;;11.80;99.90;;;;;;5023308;28;20077;-68
2023/10/22 02:35:51;;;;;;;2.00;0.30;;;11.70;99.90;;;;;;5000277;28;20041;-67
2023/10/22 02:38:17;;;;;;;1.10;0.40;;;11.70;99.90;;;;;;5013020;28;20057;-67
2023/10/22 02:40:48;;;;;;;0.10;0.00;;;11.60;99.90;;;;;;5013144;28;20025;-68
2023/10/22 02:43:14;;;;;;;0.10;0.00;;;11.60;99.90;;;;;;4999509;28;20534;-67
2023/10/22 02:45:52;;;;;;;1.55;0.00;;;11.60;99.90;;;;;;5015981;28;20038;-67
2023/10/22 02:48:17;;;;;;;1.52;0.22;;;11.60;99.90;;;;;;5016868;28;20037;-68
2023/10/22 02:50:43;;;;;;;0.00;0.00;;;11.50;99.90;;;;;;5017829;28;20393;-68
2023/10/22 02:53:09;;;;;;;0.08;0.00;;;11.50;99.90;;;;;;5016296;28;20045;-68
2023/10/22 02:55:35;;;;;;;1.27;0.00;;;11.50;99.90;;;;;;5018454;28;20044;-67
2023/10/22 02:58:00;;;;;;;0.10;0.10;;;11.50;99.90;;;;;;4997211;28;20670;-68
2023/10/22 03:00:27;;;;;;;0.10;0.00;;;11.50;99.90;;;;;;5012081;28;20044;-68
2023/10/22 03:02:52;;;;;;;0.03;0.00;;;11.50;99.90;;;;;;4993747;28;20152;-68
2023/10/22 03:05:18;;;;;;;1.15;0.17;;;11.60;99.90;;;;;;5013973;28;20535;-67
2023/10/22 03:07:44;;;;;;;0.75;0.13;;;11.60;99.90;;;;;;5004494;28;20045;-67
2023/10/22 03:10:09;;;;;;;0.10;0.00;;;11.60;99.90;;;;;;4997274;28;20081;-68
2023/10/22 03:12:36;;;;;;;0.00;0.00;;;11.60;99.90;;;;;;5014343;28;20406;-68
2023/10/22 03:15:03;;;;;;;0.73;0.10;;;11.60;99.90;;;;;;5017204;28;20048;-67
2023/10/22 03:17:30;;;;;;;0.10;0.10;;;11.60;99.90;;;;;;5015826;28;20042;-67
2023/10/22 03:19:56;;;;;;;0.30;0.10;;;11.70;99.90;;;;;;5015395;28;20054;-67
2023/10/22 03:22:21;;;;;;;2.65;0.10;;;11.70;99.90;;;;;;4998287;28;20047;-68
2023/10/22 03:24:51;;;;;;;0.00;0.00;;;11.70;99.90;;;;;;5018594;28;20044;-67
2023/10/22 03:27:20;;;;;;;0.40;0.10;;;11.70;99.90;;;;;;5018376;28;20038;-67
2023/10/22 03:29:46;;;;;;;0.08;0.00;;;11.70;99.90;;;;;;4994096;28;20053;-67
2023/10/22 03:32:12;;;;;;;0.20;0.15;;;11.70;99.90;;;;;;5018403;28;20044;-68
2023/10/22 03:34:38;;;;;;;0.10;0.10;;;11.70;99.90;;;;;;5017189;28;20052;-68
2023/10/22 03:37:08;;;;;;;0.68;0.32;;;11.70;99.90;;;;;;5019542;28;20073;-67
2023/10/22 03:39:36;;;;;;;0.25;0.10;;;11.80;99.90;;;;;;4983684;28;20049;-68
2023/10/22 03:42:02;;;;;;;2.08;0.28;;;11.70;99.90;;;;;;5014693;28;20073;-68
2023/10/22 03:44:29;;;;;;;0.47;0.10;;;11.80;99.90;;;;;;5019339;28;20422;-67
2023/10/22 03:46:55;;;;;;;0.05;0.00;;;11.70;99.90;;;;;;4999664;28;20045;-68
2023/10/22 03:49:20;;;;;;;0.65;0.10;;;11.70;99.90;;;;;;4994954;28;20041;-67
2023/10/22 03:51:46;;;;;;;0.80;0.00;;;11.70;99.90;;;;;;5014495;28;20042;-67
2023/10/22 03:54:12;;;;;;;0.45;0.10;;;11.70;99.90;;;;;;5009128;28;20045;-68
2023/10/22 03:56:37;;;;;;;0.90;0.40;;;11.70;99.90;;;;;;4999757;28;20081;-68
2023/10/22 03:59:03;;;;;;;0.10;0.10;;;11.70;99.90;;;;;;5017199;28;20045;-68
2023/10/22 04:01:29;;;;;;;0.00;0.00;;;11.80;99.90;;;;;;5001993;28;20033;-68
2023/10/22 04:03:55;;;;;;;1.30;0.00;;;11.70;99.90;;;;;;5018522;28;20058;-68
2023/10/22 04:06:20;;;;;;;0.40;0.10;;;11.80;99.90;;;;;;5014051;28;20037;-68
2023/10/22 04:08:46;;;;;;;0.00;0.00;;;11.70;99.90;;;;;;5013177;28;20049;-68
2023/10/22 04:11:12;;;;;;;0.00;0.00;;;11.70;99.90;;;;;;5013709;28;20501;-67
2023/10/22 04:13:37;;;;;;;0.13;0.10;;;11.70;99.90;;;;;;4995660;28;20061;-68
2023/10/22 04:16:03;;;;;;;0.10;0.00;;;11.70;99.90;;;;;;5012065;28;20489;-67
2023/10/22 04:18:29;;;;;;;0.20;0.05;;;11.70;99.90;;;;;;4992206;28;20082;-68
2023/10/22 04:20:55;;;;;;;0.00;0.00;;;11.70;99.90;;;;;;5015955;28;20077;-68
2023/10/22 04:23:20;;;;;;;1.52;0.22;;;11.70;99.90;;;;;;5014654;28;20455;-67
2023/10/22 04:25:46;;;;;;;0.10;0.05;;;11.70;99.90;;;;;;4995090;28;20046;-67
2023/10/22 04:28:13;;;;;;;0.15;0.10;;;11.70;99.90;;;;;;4999443;28;20156;-68
2023/10/22 04:30:40;;;;;;;3.35;0.17;;;11.70;99.90;;;;;;4999240;28;20050;-67
2023/10/22 04:33:06;;;;;;;0.75;0.45;;;11.70;99.90;;;;;;4985459;28;20080;-67
2023/10/22 04:35:33;;;;;;;0.17;0.10;;;11.70;99.90;;;;;;4999736;28;20076;-68
2023/10/22 04:38:00;;;;;;;0.05;0.00;;;11.70;99.90;;;;;;4974425;28;20125;-68
2023/10/22 04:40:30;;;;;;;0.17;0.10;;;11.70;99.90;;;;;;5012675;28;20064;-67
2023/10/22 04:42:59;;;;;;;0.75;0.20;;;11.70;99.90;;;;;;5014418;28;20038;-68
2023/10/22 04:45:25;;;;;;;0.32;0.00;;;11.70;99.90;;;;;;4996211;28;20045;-68
2023/10/22 04:47:51;;;;;;;0.00;0.00;;;11.70;99.90;;;;;;5010337;28;20136;-68
2023/10/22 04:50:16;;;;;;;1.88;0.10;;;11.70;99.90;;;;;;4998375;28;20320;-67
2023/10/22 04:52:42;;;;;;;0.00;0.00;;;11.70;99.90;;;;;;5013280;28;20113;-68
2023/10/22 04:55:11;;;;;;;0.00;0.00;;;11.70;99.90;;;;;;5014018;28;20057;-67
2023/10/22 04:57:36;;;;;;;0.15;0.03;;;11.80;99.90;;;;;;5014979;28;20157;-67
2023/10/22 05:00:07;;;;;;;0.10;0.10;;;11.80;99.90;;;;;;4998765;28;20048;-67
2023/10/22 05:02:33;;;;;;;0.00;0.00;;;11.70;99.90;;;;;;4990936;28;20037;-67
2023/10/22 05:04:58;;;;;;;0.00;0.00;;;11.80;99.90;;;;;;5012720;28;20072;-67
2023/10/22 05:07:24;;;;;;;4.30;0.43;;;11.80;99.90;;;;;;4994261;28;20041;-67
2023/10/22 05:09:50;;;;;;;0.10;0.08;;;11.80;99.90;;;;;;5018863;28;20079;-67
2023/10/22 05:12:16;;;;;;;0.10;0.08;;;11.80;99.90;;;;;;5011176;28;20125;-68
2023/10/22 05:14:42;;;;;;;0.00;0.00;;;11.80;99.90;;;;;;4992333;28;20074;-67
2023/10/22 05:17:08;;;;;;;0.40;0.15;;;11.90;99.90;;;;;;5012191;28;20497;-68
2023/10/22 05:19:34;;;;;;;0.00;0.00;;;11.90;99.90;;;;;;4995823;28;20076;-68
2023/10/22 05:22:00;;;;;;;0.25;0.10;;;11.90;99.90;;;;;;5015645;28;20052;-68
2023/10/22 05:24:26;;;;;;;0.08;0.00;;;11.90;99.90;;;;;;5010638;28;20033;-66
2023/10/22 05:26:53;;;;;;;0.40;0.00;;;11.90;99.90;;;;;;5011279;28;20558;-66
2023/10/22 05:29:18;;;;;;;0.15;0.10;;;11.90;99.90;;;;;;5011248;28;20046;-66
2023/10/22 05:31:44;;;;;;;0.00;0.00;;;11.90;99.90;;;;;;5003125;28;20055;-66
2023/10/22 05:34:10;;;;;;;0.00;0.00;;;11.90;99.90;;;;;;4993790;28;20137;-65
2023/10/22 05:36:35;;;;;;;0.00;0.00;;;12.00;99.90;;;;;;5017684;28;20045;-66
2023/10/22 05:39:02;;;;;;;0.00;0.00;;;12.00;99.90;;;;;;5018962;28;20052;-67
2023/10/22 05:41:28;;;;;;;0.00;0.00;;;12.00;99.90;;;;;;5013593;28;20042;-65
2023/10/22 05:43:56;;;;;;;0.00;0.00;;;12.00;99.90;;;;;;5010536;28;20046;-65
2023/10/22 05:46:26;;;;;;;0.25;0.00;;;12.00;99.90;;;;;;5015928;28;20073;-65
2023/10/22 05:48:52;;;;;;;0.80;0.00;;;12.10;99.90;;;;;;5018606;28;20038;-65
2023/10/22 05:51:17;;;;;;;0.00;0.00;;;12.10;99.90;;;;;;5014961;28;20042;-66
2023/10/22 05:53:46;;;;;;;0.00;0.00;;;12.00;99.90;;;;;;5011007;28;20084;-65
2023/10/22 05:56:12;;;;;;;1.38;0.20;;;12.00;99.90;;;;;;5015521;28;20038;-65
2023/10/22 05:58:39;;;;;;;0.10;0.00;;;12.00;99.90;;;;;;5016011;28;20061;-65
2023/10/22 06:01:05;;;;;;;0.75;0.10;;;12.00;99.90;;;;;;4979732;28;20050;-65
2023/10/22 06:03:31;;;;;;;1.58;0.15;;;11.90;99.90;;;;;;5008511;28;20054;-65
2023/10/22 06:05:57;;;;;;;0.05;0.00;;;11.90;99.90;;;;;;5015560;28;20273;-64
2023/10/22 06:08:22;;;;;;;0.00;0.00;;;11.90;99.90;;;;;;4995073;28;20041;-66
2023/10/22 06:10:48;;;;;;;0.20;0.10;;;11.90;99.90;;;;;;5009106;28;20073;-65
2023/10/22 06:13:14;;;;;;;0.00;0.00;;;11.80;99.90;;;;;;5012967;28;20034;-66
2023/10/22 06:15:42;;;;;;;0.00;0.00;;;11.90;99.90;;;;;;4999310;28;20045;-65
2023/10/22 06:18:08;;;;;;;1.10;0.00;;;11.80;99.90;;;;;;5017600;28;20037;-65
2023/10/22 06:20:35;;;;;;;0.90;0.10;;;11.80;99.90;;;;;;5003619;28;20085;-66
2023/10/22 06:23:02;;;;;;;0.08;0.08;;;11.80;99.90;;;;;;5010489;28;20050;-66
2023/10/22 06:25:28;;;;;;;1.17;0.10;;;11.70;99.90;;;;;;5012409;28;20034;-66
2023/10/22 06:27:55;;;;;;;0.15;0.10;;;11.60;99.90;;;;;;5014565;28;20045;-66
2023/10/22 06:30:25;;;;;;;0.00;0.00;;;11.60;99.90;;;;;;5005547;28;20402;-65
2023/10/22 06:32:56;;;;;;;0.32;0.10;;;11.50;99.90;;;;;;5015249;28;20387;-66
2023/10/22 06:35:23;;;;;;;1.98;0.30;;;11.50;99.90;;;;;;5009027;28;20083;-66
2023/10/22 06:37:53;;;;;;;0.00;0.00;;;11.40;99.90;;;;;;5019250;28;20088;-66
2023/10/22 06:40:22;;;;;;;0.35;0.28;;;11.40;99.90;;;;;;4997086;28;20072;-66
2023/10/22 06:42:48;;;;;;;0.10;0.10;;;11.40;99.90;;;;;;5020784;28;20133;-66
2023/10/22 06:45:15;;;;;;;0.75;0.32;;;11.30;99.90;;;;;;5014044;28;21053;-65
2023/10/22 06:47:41;;;;;;;3.13;0.55;;;11.30;99.90;;;;;;5012425;28;20109;-65
2023/10/22 06:50:09;;;;;;;0.90;0.20;;;11.30;99.90;;;;;;5016003;28;20152;-66
2023/10/22 06:52:35;;;;;;;0.50;0.22;;;11.30;99.90;;;;;;5020140;28;20513;-66
2023/10/22 06:55:01;;;;;;;3.63;0.60;;;11.30;99.90;;;;;;5017212;28;20038;-65
2023/10/22 06:57:27;;;;;;;0.17;0.13;;;11.30;99.90;;;;;;5005866;28;20049;-66
2023/10/22 06:59:55;;;;;;;2.08;0.43;;;11.30;99.90;;;;;;5000625;28;20038;-66
2023/10/22 07:02:25;;;;;;;0.13;0.10;;;11.30;99.90;;;;;;5016428;28;20100;-66
2023/10/22 07:04:52;;;;;;;1.13;0.25;;;11.30;99.90;;;;;;4999913;28;20053;-66
2023/10/22 07:07:18;;;;;;;0.50;0.20;;;11.30;99.90;;;;;;5018492;28;20042;-66
2023/10/22 07:09:44;;;;;;;0.75;0.30;;;11.30;99.90;;;;;;5024676;28;20422;-65
2023/10/22 07:12:10;;;;;;;0.85;0.45;;;11.30;99.90;;;;;;5012886;28;20045;-66
2023/10/22 07:14:35;;;;;;;1.63;0.30;;;11.30;99.90;;;;;;5019937;28;20050;-66
2023/10/22 07:17:02;;;;;;;5.00;0.47;;;11.30;99.90;;;;;;5005973;28;20048;-66
2023/10/22 07:19:27;;;;;;;0.65;0.50;;;11.30;99.90;;;;;;5015165;28;20050;-66
2023/10/22 07:21:53;;;;;;;0.47;0.25;;;11.30;99.90;;;;;;5020501;28;20587;-66
2023/10/22 07:24:19;;;;;;;0.57;0.30;;;11.30;99.90;;;;;;4995490;28;20029;-67
2023/10/22 07:26:44;;;;;;;0.43;0.22;;;11.30;99.90;;;;;;5011697;28;20724;-66
2023/10/22 07:29:12;;;;;;;1.65;0.30;;;11.30;99.90;;;;;;5011380;28;20038;-66
2023/10/22 07:31:38;;;;;;;0.70;0.40;;;11.30;99.90;;;;;;5003453;28;20049;-66
2023/10/22 07:34:04;;;;;;;0.20;0.15;;;11.30;99.90;;;;;;5014643;28;20072;-65
2023/10/22 07:36:30;;;;;;;0.65;0.40;;;11.30;99.90;;;;;;5012259;28;20034;-66
2023/10/22 07:38:56;;;;;;;0.75;0.40;;;11.30;99.90;;;;;;5006156;28;20128;-66
2023/10/22 07:41:22;;;;;;;0.15;0.10;;;11.30;99.90;;;;;;5013619;28;20362;-66
2023/10/22 07:43:48;;;;;;;0.70;0.20;;;11.30;99.90;;;;;;5012606;28;20034;-66
2023/10/22 07:46:15;;;;;;;3.95;0.32;;;11.30;99.90;;;;;;4996252;28;20052;-65
2023/10/22 07:48:42;;;;;;;3.25;0.30;;;11.30;99.90;;;;;;5009959;28;20050;-66
2023/10/22 07:51:18;;;;;;;2.08;0.45;;;11.40;99.90;;;;;;4998893;28;20575;-66
2023/10/22 07:53:45;;;;;;;1.00;0.40;;;11.40;99.90;;;;;;5015480;28;20038;-67
2023/10/22 07:56:12;;;;;;;2.60;0.40;;;11.40;99.90;;;;;;4991376;28;20052;-66
2023/10/22 07:58:38;;;;;;;0.08;0.08;;;11.40;99.90;;;;;;5010016;28;20042;-67
2023/10/22 08:01:06;;;;;;;1.08;0.63;;;11.50;99.90;;;;;;5018902;28;20081;-67
2023/10/22 08:03:33;;;;;;;0.30;0.15;;;11.50;99.90;;;;;;5015099;28;20137;-67
2023/10/22 08:06:00;;;;;;;1.40;0.20;;;11.50;99.90;;;;;;5008983;28;20041;-66
2023/10/22 08:08:26;;;;;;;0.68;0.30;;;11.50;99.90;;;;;;5019793;28;20044;-66
2023/10/22 08:10:57;;;;;;;0.20;0.20;;;11.60;99.90;;;;;;5015095;28;20037;-66
2023/10/22 08:13:23;;;;;;;1.98;0.60;;;11.70;99.90;;;;;;5017537;28;20030;-67
2023/10/22 08:15:49;;;;;;;0.90;0.57;;;11.60;99.90;;;;;;5009849;28;20045;-67
2023/10/22 08:18:15;;;;;;;0.65;0.30;;;11.70;99.90;;;;;;5000790;28;20073;-67
2023/10/22 08:20:41;;;;;;;0.95;0.30;;;11.70;99.90;;;;;;5016093;28;20080;-66
2023/10/22 08:23:07;;;;;;;0.55;0.40;;;11.80;99.90;;;;;;5015901;28;20540;-67
2023/10/22 08:25:33;;;;;;;0.32;0.20;;;11.90;99.90;;;;;;4995741;28;20043;-66
2023/10/22 08:27:59;;;;;;;3.17;0.30;;;12.00;99.90;;;;;;5018970;28;20112;-67
2023/10/22 08:30:25;;;;;;;1.17;0.30;;;12.00;99.90;;;;;;5001602;28;20466;-67
2023/10/22 08:32:51;;;;;;;1.17;0.50;;;12.10;99.90;;;;;;5017254;28;20421;-67
2023/10/22 08:35:17;;;;;;;0.40;0.30;;;12.20;99.90;;;;;;5007427;28;20050;-67
2023/10/22 08:37:44;;;;;;;1.17;0.35;;;12.30;99.90;;;;;;5018302;28;20025;-66
2023/10/22 08:40:11;;;;;;;0.35;0.20;;;12.50;99.90;;;;;;5016879;28;20038;-67
2023/10/22 08:42:37;;;;;;;3.13;0.63;;;12.90;99.90;;;;;;5017585;28;20314;-67
2023/10/22 08:45:05;;;;;;;0.43;0.20;;;14.10;99.90;;;;;;5014210;28;20111;-67
2023/10/22 08:47:31;;;;;;;0.15;0.10;;;15.30;99.90;;;;;;5017044;28;20033;-66
2023/10/22 08:49:58;;;;;;;1.92;0.20;;;16.10;99.90;;;;;;5019885;28;20128;-67
2023/10/22 08:52:24;;;;;;;1.15;0.30;;;17.20;99.90;;;;;;5011407;28;20045;-66
2023/10/22 08:54:51;;;;;;;5.25;0.75;;;18.10;99.90;;;;;;5015250;28;20482;-66
2023/10/22 08:57:21;;;;;;;1.55;0.20;;;18.80;99.90;;;;;;5012994;28;20559;-67
2023/10/22 08:59:47;;;;;;;0.63;0.28;;;19.50;99.90;;;;;;5014600;28;20060;-67
2023/10/22 09:02:16;;;;;;;3.05;0.22;;;19.10;99.90;;;;;;5014828;28;20041;-66
2023/10/22 09:04:42;;;;;;;0.82;0.25;;;18.80;99.90;;;;;;5012309;28;20045;-66
2023/10/22 09:07:08;;;;;;;2.72;0.35;;;18.50;99.90;;;;;;5005614;28;20544;-68
2023/10/22 09:09:38;;;;;;;3.75;0.20;;;17.80;99.90;;;;;;4984009;28;20498;-67
2023/10/22 09:12:08;;;;;;;0.85;0.20;;;17.00;99.90;;;;;;5005611;28;20124;-66
2023/10/22 09:14:34;;;;;;;0.75;0.57;;;16.50;99.90;;;;;;5018286;28;20045;-66
2023/10/22 09:17:17;;;;;;;3.65;0.30;;;16.20;99.90;;;;;;5009320;28;20080;-66
2023/10/22 09:19:51;;;;;;;3.28;0.30;;;16.40;99.90;;;;;;5015328;28;20034;-66
2023/10/22 09:22:25;;;;;;;24.05;12.30;;;16.90;99.90;;;;;;5002795;28;20062;-66
2023/10/22 09:24:54;;;;;;;0.40;0.10;;;18.10;99.90;;;;;;5014605;28;20053;-66
2023/10/22 09:27:28;;;;;;;0.50;0.30;;;18.80;99.90;;;;;;5004743;28;20109;-67
2023/10/22 09:29:54;;;;;;;0.20;0.10;;;19.50;99.90;;;;;;5010536;28;20539;-67
2023/10/22 09:32:21;;;;;;;0.45;0.43;;;20.30;99.90;;;;;;5007341;28;20030;-67
2023/10/22 09:34:47;;;;;;;0.20;0.20;;;20.80;99.90;;;;;;5003623;28;21671;-67
2023/10/22 09:37:13;;;;;;;1.00;0.20;;;20.90;99.90;;;;;;4995142;28;20508;-66
2023/10/22 09:39:42;;;;;;;1.80;0.15;;;21.10;99.90;;;;;;4996821;28;20121;-67
2023/10/22 09:42:09;;;;;;;0.10;0.10;;;21.70;99.90;;;;;;5015884;28;20049;-66
2023/10/22 09:44:37;;;;;;;0.30;0.10;;;21.90;99.90;;;;;;5010738;28;20061;-67
2023/10/22 09:47:07;;;;;;;0.10;0.00;;;22.30;99.90;;;;;;4995765;28;20046;-67
2023/10/22 09:49:35;;;;;;;1.55;0.17;;;22.80;99.90;;;;;;5008129;28;20492;-67
2023/10/22 09:52:06;;;;;;;0.10;0.03;;;23.10;99.90;;;;;;5020187;28;20394;-66
2023/10/22 09:54:39;;;;;;;0.57;0.28;;;23.30;99.90;;;;;;5013167;28;20056;-66
2023/10/22 09:57:15;;;;;;;0.00;0.00;;;23.30;99.90;;;;;;5017251;28;20042;-66
2023/10/22 09:59:42;;;;;;;0.75;0.10;;;22.20;99.90;;;;;;5009110;28;20128;-67
2023/10/22 10:02:13;;;;;;;0.22;0.10;;;20.70;99.90;;;;;;5013457;28;20038;-67
2023/10/22 10:04:40;;;;;;;0.10;0.05;;;19.30;99.90;;;;;;5013001;28;20161;-66
2023/10/22 10:07:06;;;;;;;0.13;0.00;;;18.30;99.90;;;;;;5002088;28;20049;-66
2023/10/22 10:09:34;;;;;;;0.10;0.00;;;17.40;99.90;;;;;;5006482;28;20532;-66
2023/10/22 10:12:03;;;;;;;0.60;0.10;;;16.70;99.90;;;;;;5013599;28;20668;-65
2023/10/22 10:14:49;;;;;;;1.20;0.08;;;16.00;99.90;;;;;;5022389;28;20045;-66
2023/10/22 10:17:17;;;;;;;0.15;0.03;;;15.40;99.90;;;;;;5023160;28;20065;-66
2023/10/22 10:19:42;;;;;;;1.95;0.20;;;15.10;99.90;;;;;;4996382;28;20038;-66
2023/10/22 10:22:09;;;;;;;0.38;0.00;;;14.70;99.90;;;;;;4995267;28;20037;-66
2023/10/22 10:24:35;;;;;;;1.55;0.05;;;14.50;99.90;;;;;;5020554;28;20053;-66
2023/10/22 10:27:01;;;;;;;2.83;0.10;;;14.30;99.90;;;;;;4996296;28;20125;-66
2023/10/22 10:29:28;;;;;;;1.20;0.15;;;14.10;99.90;;;;;;5001117;28;20041;-66
2023/10/22 10:31:55;;;;;;;1.83;0.43;;;13.90;99.90;;;;;;5015626;28;20049;-66
2023/10/22 10:34:31;;;;;;;2.70;0.20;;;13.70;99.90;;;;;;5021477;28;20084;-66
2023/10/22 10:37:07;;;;;;;2.38;0.20;;;13.50;99.90;;;;;;5016798;28;20117;-65
2023/10/22 10:39:42;;;;;;;0.85;0.20;;;13.40;99.90;;;;;;5015108;28;20410;-66
2023/10/22 10:42:27;;;;;;;0.98;0.10;;;13.30;99.90;;;;;;5018477;28;20034;-67
2023/10/22 10:44:56;;;;;;;;;;;13.10;99.90;;;;;;5008289;28;20048;-66
2023/10/22 10:47:22;;;;;;;0.20;0.10;;;13.50;99.90;;;;;;5017381;28;19917;-66
2023/10/22 10:50:07;;;;;;;0.75;0.13;;;14.70;99.90;;;;;;4997425;28;20255;-67
2023/10/22 10:52:48;;;;;;;0.30;0.20;;;15.50;99.90;;;;;;5016880;28;20044;-66
2023/10/22 10:55:20;;;;;;;1.45;0.35;;;15.80;99.90;;;;;;5006033;28;20456;-67
2023/10/22 10:57:51;;;;;;;2.17;0.30;;;15.50;99.90;;;;;;5003780;28;20408;-67
2023/10/22 11:00:26;;;;;;;0.25;0.10;;;15.10;99.90;;;;;;5015449;28;20041;-67
2023/10/22 11:02:53;;;;;;;0.20;0.10;;;14.70;99.90;;;;;;5017324;28;20053;-66
2023/10/22 11:05:39;;;;;;;0.20;0.10;;;14.40;99.90;;;;;;5017697;28;20045;-66
2023/10/22 11:08:11;;;;;;;1.73;0.60;;;14.10;99.90;;;;;;5015390;28;20038;-66
2023/10/22 11:10:37;;;;;;;0.30;0.10;;;13.90;99.90;;;;;;5003354;28;20050;-67
2023/10/22 11:13:07;;;;;;;0.70;0.10;;;13.70;99.90;;;;;;5016684;28;20104;-66
2023/10/22 11:15:36;;;;;;;25.83;12.23;;;13.60;99.90;;;;;;4981846;28;20065;-67
2023/10/22 11:18:07;;;;;;;0.25;0.20;;;13.50;99.90;;;;;;5012819;28;20048;-66
2023/10/22 11:20:34;;;;;;;0.17;0.17;;;13.50;99.90;;;;;;5015567;28;20042;-66
2023/10/22 11:23:00;;;;;;;0.82;0.30;;;13.90;99.90;;;;;;5017877;28;20363;-67
2023/10/22 11:25:27;;;;;;;1.00;0.20;;;15.40;99.90;;;;;;4999655;28;20568;-66
2023/10/22 11:27:54;;;;;;;0.77;0.32;;;17.00;99.90;;;;;;5018265;28;20049;-66
2023/10/22 11:30:33;;;;;;;1.33;0.38;;;17.10;99.90;;;;;;5017415;28;20738;-67
2023/10/22 11:32:59;;;;;;;0.15;0.00;;;16.70;99.90;;;;;;5015270;28;20638;-67
2023/10/22 11:35:31;;;;;;;0.20;0.03;;;16.20;99.90;;;;;;5011314;28;20124;-66
2023/10/22 11:37:59;;;;;;;0.47;0.20;;;15.70;99.90;;;;;;5015469;28;20056;-66
2023/10/22 11:40:29;;;;;;;0.05;0.05;;;15.30;99.90;;;;;;5019539;28;20091;-67
2023/10/22 11:43:05;;;;;;;0.20;0.10;;;15.00;99.90;;;;;;5022697;28;20041;-66
2023/10/22 11:45:35;;;;;;;2.50;0.28;;;14.70;99.90;;;;;;4979930;28;20041;-67
2023/10/22 11:48:15;;;;;;;0.00;0.00;;;14.60;99.90;;;;;;5005551;28;20037;-66
2023/10/22 11:50:48;;;;;;;2.83;0.05;;;14.50;99.90;;;;;;5015591;28;20037;-67
2023/10/22 11:53:14;;;;;;;0.80;0.20;;;14.40;99.90;;;;;;4993061;28;20041;-67
2023/10/22 11:59:14;;;;;;;0.52;0.20;;;14.30;99.90;;;;;;4946370;28;20056;-65
2023/10/22 12:01:40;;;;;;;0.45;0.20;;;14.20;99.90;;;;;;5024168;28;20128;-67
2023/10/22 12:04:06;;;;;;;0.30;0.10;;;14.10;99.90;;;;;;4991705;28;20049;-67
2023/10/22 12:06:32;;;;;;;1.30;0.10;;;14.10;99.90;;;;;;5002789;28;20049;-67
2023/10/22 12:08:57;;;;;;;0.65;0.10;;;14.00;99.90;;;;;;5000712;28;20106;-66
2023/10/22 12:11:23;;;;;;;0.30;0.10;;;14.00;99.90;;;;;;4998163;28;20049;-66
2023/10/22 12:13:49;;;;;;;0.03;0.00;;;14.00;99.90;;;;;;5012075;28;20168;-66
2023/10/22 12:16:14;;;;;;;0.20;0.10;;;14.00;99.90;;;;;;5015335;28;20048;-66
2023/10/22 12:18:40;;;;;;;0.20;0.10;;;14.00;99.90;;;;;;5020785;28;20095;-67
2023/10/22 12:21:06;;;;;;;0.00;0.00;;;14.00;99.90;;;;;;4999207;28;20525;-65
2023/10/22 12:23:32;;;;;;;0.47;0.22;;;13.90;99.90;;;;;;5016242;28;20033;-67
2023/10/22 12:25:57;;;;;;;0.10;0.10;;;13.90;99.90;;;;;;4999018;28;20042;-67
2023/10/22 12:28:24;;;;;;;0.10;0.00;;;13.90;99.90;;;;;;5019537;28;20096;-66
2023/10/22 12:30:50;;;;;;;1.80;0.20;;;13.90;99.90;;;;;;4999219;28;20037;-66
2023/10/22 12:33:41;;;;;;;0.63;0.10;;;13.90;99.90;;;;;;5017937;28;20436;-67
2023/10/22 12:36:07;;;;;;;0.10;0.03;;;14.00;99.90;;;;;;5020275;28;20037;-67
2023/10/22 12:38:33;;;;;;;0.38;0.22;;;14.10;99.90;;;;;;4998641;28;20509;-66
2023/10/22 12:40:59;;;;;;;1.55;0.32;;;14.10;99.90;;;;;;5011611;28;20038;-67
2023/10/22 12:43:25;;;;;;;3.50;0.40;;;14.10;99.90;;;;;;5001421;28;20593;-67
2023/10/22 12:45:52;;;;;;;1.55;0.20;;;14.10;99.90;;;;;;5010572;28;20116;-66
2023/10/22 12:48:18;;;;;;;0.70;0.30;;;14.10;99.90;;;;;;4998109;28;20143;-67
2023/10/22 12:50:48;;;;;;;0.20;0.10;;;14.10;99.90;;;;;;4997243;28;20380;-67
2023/10/22 12:53:14;;;;;;;0.20;0.00;;;14.10;99.90;;;;;;5000389;28;20076;-67